US6IQ-20 Weather Reports


Display with metric or nautical units.
time (UTC)temp
F
wind
direction
speed
MPH
gust
MPH
rain 1hr
in
rain 24hr
in
rain mn
in
humidity
%
barometer
mb
20210116233006 20 24 7.0 9.0 0.00 0.00 0.00 25 1010.2
20210116231503 20 23 8.0 10.0 0.00 0.00 0.00 25 1010.2
20210116230021 20 35 8.0 11.0 0.00 0.00 0.00 25 1010.5
20210116224509 20 33 7.0 8.0 0.00 0.00 0.00 25 1010.7
20210116223017 21 35 5.0 6.0 0.00 0.00 0.00 25 1011.0
20210116221510 21 43 6.0 8.0 0.00 0.00 0.00 25 1011.2
20210116220014 21 26 7.0 10.0 0.00 0.00 0.00 25 1011.2
20210116214518 21 43 7.0 9.0 0.00 0.00 0.00 25 1011.2
20210116213013 21 51 9.0 13.0 0.00 0.00 0.00 25 1011.0
20210116211509 21 65 7.0 10.0 0.00 0.00 0.00 25 1011.4
20210116210022 22 59 5.0 7.0 0.00 0.00 0.00 25 1011.5
20210116204510 21 37 3.0 5.0 0.00 0.00 0.00 25 1011.4
20210116203010 21 29 4.0 5.0 0.00 0.00 0.00 25 1011.5
20210116201507 21 29 1.0 3.0 0.00 0.00 0.00 25 1011.7
20210116200010 21 42 1.0 2.0 0.00 0.00 0.00 25 1011.9
20210116194511 21 42 1.0 2.0 0.00 0.00 0.00 25 1012.1
20210116193010 21 49 0.0 0.0 0.00 0.00 0.00 53 1012.2
20210116191511 21 26 0.0 0.0 0.00 0.00 0.00 53 1012.1
20210116190022 21 35 0.0 0.0 0.00 0.00 0.00 53 1012.1
20210116184512 21 24 0.0 0.0 0.00 0.00 0.00 25 1012.1
20210116183018 21 50 0.0 1.0 0.00 0.00 0.00 25 1011.9
20210116181721 21 61 2.0 2.0 0.00 0.00 0.00 25 1012.2
20210116180020 20 277 0.0 0.0 0.00 0.00 0.00 25 1012.6
20210116174514 20 277 0.0 0.0 0.00 0.00 0.00 25 1012.6
20210116173012 21 277 0.0 0.0 0.00 0.00 0.00 25 1012.4
20210116171506 21 277 0.0 0.0 0.00 0.00 0.00 25 1012.4
20210116170021 21 277 0.0 0.0 0.00 0.00 0.00 25 1012.4
20210116164516 21 255 2.0 2.0 0.00 0.00 0.00 25 1012.4
20210116163011 20 243 0.0 0.0 0.00 0.00 0.00 25 1012.4
20210116161510 20 243 0.0 1.0 0.00 0.00 0.00 25 1012.6
20210116160010 21 254 2.0 2.0 0.00 0.00 0.00 25 1012.4
20210116154516 21 259 2.0 3.0 0.00 0.00 0.00 25 1012.4
20210116153007 21 261 3.0 4.0 0.00 0.00 0.00 25 1012.2
20210116151514 20 260 0.0 1.0 0.00 0.00 0.00 25 1012.4
20210116150012 20 275 1.0 2.0 0.00 0.00 0.00 25 1012.4
20210116144511 20 265 2.0 2.0 0.00 0.00 0.00 25 1012.6
20210116143023 20 250 5.0 5.0 0.00 0.00 0.00 25 1012.7
20210116141541 21 281 4.0 7.0 0.00 0.00 0.00 53 1012.6
20210116140134 21 292 4.0 8.0 0.00 0.00 0.00 53 1012.6
20210116134507 21 307 5.0 7.0 0.00 0.00 0.00 53 1012.6
20210116133004 22 271 4.0 7.0 0.00 0.00 0.00 25 1012.7
20210116131511 22 283 9.0 11.0 0.00 0.00 0.00 53 1012.7
20210116130022 22 257 8.0 10.0 0.00 0.00 0.00 25 1012.7
20210116124518 22 268 11.0 15.0 0.00 0.00 0.00 25 1012.7
20210116123011 22 270 8.0 10.0 0.00 0.00 0.00 25 1012.6
20210116121509 22 273 5.0 7.0 0.00 0.00 0.00 25 1012.4
20210116120032 21 268 8.0 11.0 0.00 0.00 0.00 25 1012.2
20210116114509 21 300 6.0 9.0 0.00 0.00 0.00 53 1012.2
20210116113025 21 275 10.0 13.0 0.00 0.00 0.00 25 1012.4
20210116111521 21 272 8.0 10.0 0.00 0.00 0.00 25 1012.2
20210116110030 20 274 8.0 12.0 0.00 0.00 0.00 25 1012.4
20210116104514 20 266 8.0 10.0 0.00 0.00 0.00 25 1012.7
20210116103004 19 286 9.0 12.0 0.00 0.00 0.00 53 1012.9
20210116101505 19 277 12.0 15.0 0.00 0.00 0.00 25 1012.7
20210116100012 19 289 7.0 8.0 0.00 0.00 0.00 53 1013.1
20210116094505 19 270 10.0 14.0 0.00 0.00 0.00 25 1013.1
20210116093021 18 261 11.0 15.0 0.00 0.00 0.00 25 1013.3
20210116091508 18 272 10.0 13.0 0.00 0.00 0.00 25 1013.3
20210116090023 18 273 14.0 17.0 0.00 0.00 0.00 25 1012.9
20210116084523 18 271 13.0 15.0 0.00 0.00 0.00 25 1012.9
20210116083008 18 273 7.0 9.0 0.00 0.00 0.00 25 1012.9
20210116081521 18 285 10.0 13.0 0.00 0.00 0.00 53 1012.7
20210116080019 18 289 11.0 15.0 0.00 0.00 0.00 53 1012.6
20210116074509 18 286 8.0 11.0 0.00 0.00 0.00 53 1012.4
20210116073006 17 298 8.0 12.0 0.00 0.00 0.00 53 1012.2
20210116071508 17 279 8.0 13.0 0.00 0.00 0.00 53 1012.1
20210116070020 17 272 11.0 17.0 0.00 0.00 0.00 25 1011.9
20210116064509 18 270 10.0 13.0 0.00 0.00 0.00 25 1011.5
20210116063018 19 267 4.0 6.0 0.00 0.00 0.00 25 1011.4
20210116061510 19 300 6.0 8.0 0.00 0.00 0.00 53 1011.2
20210116060020 19 298 6.0 8.0 0.00 0.00 0.00 53 1011.0
20210116054508 19 276 4.0 6.0 0.00 0.00 0.00 25 1010.7
20210116053006 19 257 5.0 7.0 0.00 0.00 0.00 25 1010.7
20210116051523 19 277 5.0 8.0 0.00 0.00 0.00 25 1010.5
20210116050012 19 277 3.0 5.0 0.00 0.00 0.00 25 1010.5
20210116044511 20 281 7.0 8.0 0.00 0.00 0.00 53 1010.3
20210116043017 20 272 6.0 9.0 0.00 0.00 0.00 25 1010.3
20210116041505 20 262 7.0 8.0 0.00 0.00 0.00 25 1010.2
20210116040004 20 262 7.0 10.0 0.00 0.00 0.00 25 1010.0
20210116034506 21 273 6.0 9.0 0.00 0.00 0.00 25 1009.8
20210116033018 21 268 9.0 12.0 0.00 0.00 0.00 25 1009.7
20210116031504 21 267 8.0 10.0 0.00 0.00 0.00 25 1009.7
20210116030020 22 257 9.0 11.0 0.00 0.00 0.00 25 1009.5
20210116024504 22 272 10.0 15.0 0.00 0.00 0.00 25 1009.5
20210116023005 22 271 10.0 12.0 0.00 0.00 0.00 25 1009.3
20210116021513 22 266 13.0 18.0 0.00 0.00 0.00 25 1009.1
20210116020020 23 267 13.0 17.0 0.00 0.00 0.00 25 1009.0
20210116014520 23 278 10.0 15.0 0.00 0.00 0.00 53 1009.0
20210116013006 22 265 7.0 10.0 0.00 0.00 0.00 25 1008.8
20210116011511 22 278 12.0 17.0 0.00 0.00 0.00 53 1008.5
20210116010009 22 272 16.0 20.0 0.00 0.00 0.00 25 1008.1
20210116004509 23 260 14.0 18.0 0.00 0.00 0.00 25 1008.3
20210116003006 23 260 12.0 17.0 0.00 0.00 0.00 25 1008.5
20210116001503 24 253 15.0 23.0 0.00 0.00 0.00 25 1007.9
20210116000020 24 259 14.0 18.0 0.00 0.00 0.00 25 1007.8
20210115234511 25 261 13.0 21.0 0.00 0.00 0.00 25 1007.6